Time;durP1;ratioP1;P1;durP2;ratioP2;P2;SDS_P1;SDS_P2;PMS_P1;PMS_P2;Temp;Humidity;BMP_temperature;BMP_pressure;BME280_temperature;BME280_humidity;BME280_pressure;Samples;Min_cycle;Max_cycle;Signal;HPM_P1;HPM_P2
2023/12/10 00:01:47;;;;;;;162.70;76.63;;;;;;;6.34;82.35;100785.78;4927676;28;20705;-83
2023/12/10 00:04:20;;;;;;;161.88;81.03;;;;;;;6.28;82.30;100787.03;4932282;28;20363;-80
2023/12/10 00:07:03;;;;;;;167.68;80.85;;;;;;;6.16;82.49;100782.59;4931412;28;20137;-81
2023/12/10 00:09:43;;;;;;;152.65;78.75;;;;;;;6.29;82.58;100825.66;4941125;28;20046;-83
2023/12/10 00:12:17;;;;;;;149.18;77.20;;;;;;;6.25;82.96;100823.31;4943909;28;20054;-82
2023/12/10 00:14:54;;;;;;;153.30;77.40;;;;;;;6.17;82.66;100806.22;4922815;28;20054;-83
2023/12/10 00:17:25;;;;;;;149.20;77.82;;;;;;;6.06;82.92;100795.53;4957963;28;20139;-81
2023/12/10 00:19:55;;;;;;;165.15;82.47;;;;;;;5.67;83.01;100736.59;4935585;28;20208;-81
2023/12/10 00:22:31;;;;;;;160.25;83.68;;;;;;;6.15;83.12;100810.75;4965008;28;20157;-82
2023/12/10 00:25:09;;;;;;;164.48;80.82;;;;;;;6.04;82.87;100791.31;4951336;28;20144;-82
2023/12/10 00:27:37;;;;;;;168.90;81.68;;;;;;;6.14;83.06;100818.75;4972759;28;20050;-83
2023/12/10 00:30:05;;;;;;;162.70;79.85;;;;;;;6.17;83.27;100827.31;4976920;28;20041;-82
2023/12/10 00:32:32;;;;;;;167.32;81.70;;;;;;;6.12;82.78;100826.78;4972442;28;20053;-81
2023/12/10 00:34:59;;;;;;;175.68;83.63;;;;;;;6.12;83.08;100839.94;4973145;28;20432;-82
2023/12/10 00:37:31;;;;;;;166.02;82.43;;;;;;;6.17;83.12;100853.66;4968404;28;20181;-83
2023/12/10 00:40:00;;;;;;;169.93;82.90;;;;;;;5.37;83.06;100730.75;4974761;28;20050;-81
2023/12/10 00:42:27;;;;;;;161.52;83.28;;;;;;;6.18;83.25;100855.34;4978741;28;20061;-82
2023/12/10 00:45:04;;;;;;;162.93;82.97;;;;;;;6.07;82.76;100842.06;4966491;28;20185;-80
2023/12/10 00:47:41;;;;;;;167.63;83.25;;;;;;;6.27;82.68;100869.72;4962693;28;20038;-82
2023/12/10 00:50:14;;;;;;;177.05;86.07;;;;;;;6.30;82.31;100874.78;4966688;28;20404;-80
2023/12/10 00:52:44;;;;;;;170.73;84.95;;;;;;;6.27;82.32;100868.88;4983717;28;20300;-81
2023/12/10 00:55:11;;;;;;;171.60;85.97;;;;;;;6.11;82.03;100827.69;4959265;28;20125;-81
2023/12/10 00:57:38;;;;;;;170.48;81.72;;;;;;;6.29;82.16;100867.81;4959204;28;20061;-80
2023/12/10 01:00:10;;;;;;;168.63;82.10;;;;;;;6.27;82.38;100874.16;4974185;28;20139;-83
2023/12/10 01:02:40;;;;;;;174.13;85.55;;;;;;;6.03;82.32;100823.91;4969216;28;20073;-82
2023/12/10 01:05:13;;;;;;;171.85;88.32;;;;;;;6.17;82.27;100842.28;4971336;28;20064;-82
2023/12/10 01:07:46;;;;;;;179.70;88.00;;;;;;;6.12;82.60;100834.69;4954854;28;20049;-82
2023/12/10 01:10:13;;;;;;;173.65;83.57;;;;;;;6.06;82.79;100829.81;4964254;28;20045;-80
2023/12/10 01:12:40;;;;;;;179.02;89.32;;;;;;;6.06;83.11;100835.06;4966679;28;20419;-81
2023/12/10 01:15:14;;;;;;;171.85;83.65;;;;;;;5.43;82.95;100751.38;4965572;28;20500;-82
2023/12/10 01:17:45;;;;;;;182.15;88.18;;;;;;;5.89;82.68;100837.94;4962003;28;20046;-83
2023/12/10 01:20:12;;;;;;;185.05;92.00;;;;;;;6.11;82.21;100856.69;4970673;28;20442;-80
2023/12/10 01:22:40;;;;;;;184.52;87.97;;;;;;;6.10;82.09;100855.03;4960862;28;20060;-79
2023/12/10 01:25:13;;;;;;;177.52;84.78;;;;;;;6.10;82.09;100864.72;4965446;28;20383;-82
2023/12/10 01:27:45;;;;;;;167.63;84.38;;;;;;;5.98;82.56;100871.63;4968234;28;20042;-81
2023/12/10 01:30:14;;;;;;;186.57;89.30;;;;;;;5.92;82.69;100858.81;4968328;28;20092;-80
2023/12/10 01:32:46;;;;;;;179.70;87.05;;;;;;;5.92;82.68;100861.44;4960273;28;20066;-82
2023/12/10 01:35:19;;;;;;;186.93;89.03;;;;;;;6.00;82.01;100867.13;4967032;28;20535;-81
2023/12/10 01:37:50;;;;;;;183.98;89.18;;;;;;;5.99;81.98;100875.94;4970384;28;20433;-82
2023/12/10 01:40:19;;;;;;;182.90;90.57;;;;;;;5.92;82.23;100856.19;4957466;28;20161;-82
2023/12/10 01:42:47;;;;;;;187.57;92.70;;;;;;;5.68;82.31;100822.59;4963775;28;20291;-83
2023/12/10 01:45:18;;;;;;;176.80;85.45;;;;;;;5.99;82.06;100875.94;4978903;28;20451;-80
2023/12/10 01:47:52;;;;;;;180.48;83.63;;;;;;;5.70;82.20;100848.81;4981568;28;20054;-82
2023/12/10 01:50:21;;;;;;;184.30;88.40;;;;;;;6.06;81.75;100903.59;4956335;28;20507;-80
2023/12/10 01:52:49;;;;;;;184.57;87.15;;;;;;;6.03;81.74;100903.81;4959248;28;20050;-82
2023/12/10 01:55:20;;;;;;;176.85;86.75;;;;;;;5.93;82.18;100878.97;4973533;28;20134;-82
2023/12/10 01:57:50;;;;;;;179.73;86.20;;;;;;;5.30;81.88;100783.78;4966905;28;20657;-82
2023/12/10 02:00:18;;;;;;;171.23;85.95;;;;;;;5.92;82.20;100890.44;4976880;28;20553;-80
2023/12/10 02:02:46;;;;;;;170.93;85.40;;;;;;;5.88;82.98;100878.44;4954700;28;20420;-79
2023/12/10 02:05:13;;;;;;;184.35;86.80;;;;;;;5.58;82.67;100842.56;4989030;28;20050;-79
2023/12/10 02:07:43;;;;;;;185.02;86.75;;;;;;;4.82;81.97;100699.13;5002211;28;20080;-81
2023/12/10 02:10:14;;;;;;;176.68;82.25;;;;;;;4.96;82.09;100736.88;5001135;28;20144;-84
2023/12/10 02:12:53;;;;;;;182.05;84.50;;;;;;;5.78;83.03;100889.56;4973470;28;20132;-81
2023/12/10 02:15:27;;;;;;;188.25;86.00;;;;;;;5.49;82.96;100840.53;4946489;28;20701;-80
2023/12/10 02:17:55;;;;;;;175.63;83.72;;;;;;;5.89;83.19;100901.19;4980849;28;20076;-82
2023/12/10 02:20:23;;;;;;;183.02;86.28;;;;;;;5.85;83.00;100883.88;5004507;28;20048;-82
2023/12/10 02:23:06;;;;;;;188.80;87.35;;;;;;;5.90;82.21;100871.28;4984668;28;20485;-82
2023/12/10 02:25:34;;;;;;;181.20;85.10;;;;;;;5.97;82.39;100894.53;4953438;28;20388;-82
2023/12/10 02:28:04;;;;;;;180.55;87.22;;;;;;;6.02;82.14;100896.00;4947801;28;20046;-82
2023/12/10 02:30:33;;;;;;;189.98;87.57;;;;;;;5.78;83.16;100868.47;4965569;28;20057;-82
2023/12/10 02:33:09;;;;;;;173.38;84.50;;;;;;;5.92;83.23;100886.03;4934981;28;20042;-83
2023/12/10 02:35:41;;;;;;;187.30;84.38;;;;;;;6.09;82.44;100898.16;4934460;28;20746;-81
2023/12/10 02:38:08;;;;;;;;;;;;;;;5.95;82.60;100885.88;4964828;28;20364;-81
2023/12/10 02:40:41;;;;;;;191.43;88.20;;;;;;;5.98;83.14;100885.66;4933018;28;20330;-82
2023/12/10 02:43:08;;;;;;;190.90;87.07;;;;;;;5.86;82.66;100851.34;4953182;28;20045;-80
2023/12/10 02:45:35;;;;;;;182.18;84.63;;;;;;;6.04;82.66;100873.84;4971010;28;20492;-80
2023/12/10 02:48:02;;;;;;;180.02;85.45;;;;;;;5.62;82.98;100799.28;4958282;28;20449;-79
2023/12/10 02:50:29;;;;;;;186.02;82.55;;;;;;;6.11;82.75;100890.97;4960668;28;20562;-82
2023/12/10 02:52:56;;;;;;;180.70;85.47;;;;;;;5.85;83.04;100836.44;4985041;28;20440;-80
2023/12/10 02:55:23;;;;;;;173.30;83.32;;;;;;;5.53;82.76;100802.50;4977048;28;20072;-79
2023/12/10 02:57:50;;;;;;;184.50;84.25;;;;;;;6.08;82.36;100867.44;4982431;28;20054;-82
2023/12/10 03:00:20;;;;;;;179.18;83.43;;;;;;;5.98;82.72;100866.38;4961802;28;20372;-83
2023/12/10 03:02:47;;;;;;;177.32;79.80;;;;;;;6.12;82.62;100861.03;4972386;28;20060;-81
2023/12/10 03:05:14;;;;;;;186.00;83.47;;;;;;;5.93;81.91;100847.34;4958488;28;20046;-80
2023/12/10 03:07:41;;;;;;;178.35;79.28;;;;;;;5.79;81.74;100835.91;4975925;28;20476;-81
2023/12/10 03:10:15;;;;;;;180.20;81.38;;;;;;;6.17;81.28;100914.31;4948491;28;20050;-82
2023/12/10 03:13:00;;;;;;;177.38;80.43;;;;;;;6.20;80.95;100927.28;4959355;28;20038;-81
2023/12/10 03:15:28;;;;;;;178.63;81.15;;;;;;;6.13;81.10;100920.72;5019879;28;20107;-82
2023/12/10 03:17:55;;;;;;;188.15;82.70;;;;;;;5.81;81.16;100872.69;5005303;28;20388;-81
2023/12/10 03:20:22;;;;;;;185.65;80.45;;;;;;;5.96;81.26;100910.41;5005525;28;20085;-83
2023/12/10 03:22:48;;;;;;;193.43;82.93;;;;;;;6.14;81.62;100948.78;5002843;28;20042;-82
2023/12/10 03:25:19;;;;;;;172.52;80.53;;;;;;;6.09;81.87;100968.44;4975521;28;20046;-81
2023/12/10 03:27:48;;;;;;;184.88;81.38;;;;;;;5.39;81.66;100839.41;4993423;28;20049;-81
2023/12/10 03:30:15;;;;;;;186.02;84.30;;;;;;;6.10;81.07;100959.63;4986001;28;20157;-81
2023/12/10 03:32:42;;;;;;;194.40;81.75;;;;;;;6.19;81.04;100991.50;4978696;28;20077;-81
2023/12/10 03:35:12;;;;;;;195.25;83.80;;;;;;;6.04;82.14;100986.34;4981416;28;20132;-81
2023/12/10 03:37:41;;;;;;;187.40;82.18;;;;;;;5.56;82.20;100910.31;4973311;28;20050;-82
2023/12/10 03:40:08;;;;;;;195.52;86.47;;;;;;;5.25;82.80;100880.63;4980570;28;20100;-81
2023/12/10 03:42:38;;;;;;;195.98;81.53;;;;;;;5.11;82.29;100830.63;4973441;28;20392;-78
2023/12/10 03:45:09;;;;;;;203.57;86.63;;;;;;;5.86;82.40;100943.56;4952935;28;20551;-80
2023/12/10 03:47:36;;;;;;;192.18;81.00;;;;;;;5.98;83.18;100958.59;4983570;28;20054;-81
2023/12/10 03:50:06;;;;;;;200.55;87.82;;;;;;;5.76;82.26;100899.34;4975204;28;20851;-82
2023/12/10 03:52:33;;;;;;;198.45;85.70;;;;;;;5.91;82.99;100918.59;4979187;28;20052;-81
2023/12/10 03:55:03;;;;;;;194.05;82.72;;;;;;;5.98;83.28;100917.28;4989622;28;20566;-80
2023/12/10 03:57:30;;;;;;;190.23;81.63;;;;;;;5.81;83.24;100898.22;4984148;28;20076;-81
2023/12/10 03:59:57;;;;;;;202.05;81.13;;;;;;;5.62;83.13;100838.78;4979037;28;20049;-81
2023/12/10 04:02:24;;;;;;;195.07;77.13;;;;;;;6.02;83.33;100907.41;4982746;28;20080;-80
2023/12/10 04:04:54;;;;;;;202.45;81.10;;;;;;;5.88;83.61;100888.97;4984098;28;20516;-82
2023/12/10 04:07:24;;;;;;;186.82;79.45;;;;;;;5.94;82.75;100859.59;4972900;28;20145;-81
2023/12/10 04:09:51;;;;;;;185.05;77.07;;;;;;;5.91;83.11;100862.41;4979585;28;20472;-80
2023/12/10 04:12:18;;;;;;;181.88;73.20;;;;;;;5.95;82.41;100863.94;4991284;28;20046;-82
2023/12/10 04:14:47;;;;;;;181.75;76.32;;;;;;;6.05;82.36;100877.38;4977854;28;20144;-81
2023/12/10 04:17:14;;;;;;;194.13;73.95;;;;;;;6.09;82.47;100890.25;4985216;28;20045;-80
2023/12/10 04:19:42;;;;;;;174.60;69.97;;;;;;;6.06;82.35;100877.25;4986472;28;20058;-81
2023/12/10 04:22:09;;;;;;;179.32;72.78;;;;;;;5.63;81.94;100789.59;4985530;28;20245;-80
2023/12/10 04:24:36;;;;;;;182.20;73.47;;;;;;;6.02;82.06;100844.16;4984640;28;20061;-81
2023/12/10 04:27:03;;;;;;;166.68;66.30;;;;;;;5.94;82.77;100856.97;4973632;28;20061;-80
2023/12/10 04:29:30;;;;;;;173.00;64.45;;;;;;;6.10;82.56;100841.00;4980168;28;20128;-83
2023/12/10 04:31:57;;;;;;;162.93;64.47;;;;;;;6.05;81.94;100835.19;4986196;28;20441;-82
2023/12/10 04:34:24;;;;;;;165.23;63.55;;;;;;;5.85;82.59;100837.31;4985853;28;20461;-81
2023/12/10 04:36:54;;;;;;;174.77;64.07;;;;;;;5.72;81.85;100810.91;4957063;28;20046;-82
2023/12/10 04:39:21;;;;;;;162.13;66.90;;;;;;;5.90;82.47;100832.59;4989303;28;20049;-80
2023/12/10 04:41:48;;;;;;;171.25;65.60;;;;;;;5.61;82.17;100773.91;4979990;28;20422;-80
2023/12/10 04:44:15;;;;;;;182.23;68.47;;;;;;;5.84;82.11;100814.53;4989363;28;20092;-81
2023/12/10 04:46:45;;;;;;;177.30;71.22;;;;;;;5.95;82.51;100832.31;4986742;28;20438;-82
2023/12/10 04:49:11;;;;;;;172.98;66.07;;;;;;;6.10;82.20;100839.19;4991359;28;20420;-81
2023/12/10 04:51:38;;;;;;;179.85;70.95;;;;;;;5.85;82.33;100813.59;4989994;28;20559;-81
2023/12/10 04:54:05;;;;;;;181.32;70.20;;;;;;;6.07;82.12;100859.63;4990325;28;20054;-80
2023/12/10 04:56:32;;;;;;;172.50;68.35;;;;;;;6.19;82.12;100886.06;4988525;28;20281;-79
2023/12/10 04:58:58;;;;;;;174.68;65.82;;;;;;;6.08;82.18;100849.00;4982681;28;20050;-81
2023/12/10 05:01:25;;;;;;;165.40;65.80;;;;;;;6.05;82.36;100848.38;4980952;28;20129;-81
2023/12/10 05:03:55;;;;;;;167.13;67.43;;;;;;;6.32;81.96;100866.78;4988734;28;20042;-80
2023/12/10 05:06:22;;;;;;;187.25;71.80;;;;;;;6.37;81.44;100869.94;4988122;28;20049;-81
2023/12/10 05:08:49;;;;;;;174.90;67.40;;;;;;;6.44;81.80;100870.38;4977532;28;20054;-81
2023/12/10 05:11:16;;;;;;;166.02;68.45;;;;;;;6.45;81.27;100869.44;4990265;28;20245;-80
2023/12/10 05:13:42;;;;;;;172.48;67.65;;;;;;;6.31;80.79;100849.25;4970679;28;20054;-81
2023/12/10 05:16:09;;;;;;;176.13;64.78;;;;;;;6.53;80.90;100882.94;4983171;28;20524;-80
2023/12/10 05:18:37;;;;;;;175.10;64.75;;;;;;;6.29;80.24;100859.09;4981515;28;20307;-82
2023/12/10 05:21:05;;;;;;;166.18;65.43;;;;;;;6.37;80.92;100891.88;4988714;28;20045;-81
2023/12/10 05:23:31;;;;;;;162.98;63.88;;;;;;;6.49;80.65;100921.88;4959654;28;20060;-82
2023/12/10 05:25:59;;;;;;;177.65;65.22;;;;;;;6.45;80.58;100933.56;4952483;28;20100;-80
2023/12/10 05:28:26;;;;;;;163.32;62.85;;;;;;;6.24;80.78;100905.97;4950456;28;20050;-83
2023/12/10 05:30:53;;;;;;;173.02;63.03;;;;;;;6.55;80.42;100932.03;4947985;28;20046;-81
2023/12/10 05:33:20;;;;;;;179.88;65.00;;;;;;;6.57;80.37;100924.84;4949393;28;20399;-81
2023/12/10 05:35:52;;;;;;;183.10;69.03;;;;;;;6.58;80.33;100918.63;4954008;28;20053;-82
2023/12/10 05:38:20;;;;;;;152.68;58.10;;;;;;;6.20;79.88;100842.91;4983369;28;20056;-82
2023/12/10 05:40:47;;;;;;;168.27;64.70;;;;;;;6.59;79.88;100914.19;4982044;28;20050;-82
2023/12/10 05:43:14;;;;;;;164.85;64.32;;;;;;;6.40;79.53;100896.09;4988714;28;20081;-81
2023/12/10 05:45:41;;;;;;;149.80;56.13;;;;;;;6.44;79.98;100916.06;4982351;28;20464;-81
2023/12/10 05:48:07;;;;;;;158.88;58.83;;;;;;;6.43;80.30;100927.53;4989416;28;20301;-81
2023/12/10 05:50:34;;;;;;;160.48;62.63;;;;;;;6.15;80.41;100899.53;4987767;28;20469;-80
2023/12/10 05:53:03;;;;;;;156.15;57.53;;;;;;;6.25;81.00;100944.59;4984423;28;20401;-80
2023/12/10 05:55:30;;;;;;;157.32;59.83;;;;;;;6.42;80.45;100973.34;4982000;28;20058;-82
2023/12/10 05:57:59;;;;;;;145.15;58.00;;;;;;;6.43;80.41;100975.00;4984195;28;20483;-81
2023/12/10 06:00:28;;;;;;;170.27;60.40;;;;;;;6.31;80.52;100970.53;4982616;28;20046;-82
2023/12/10 06:02:55;;;;;;;150.90;59.53;;;;;;;6.32;80.32;100967.81;4980587;28;20058;-81
2023/12/10 06:05:22;;;;;;;157.95;62.65;;;;;;;6.53;80.20;101007.78;4997188;28;20052;-80
2023/12/10 06:07:49;;;;;;;158.25;60.60;;;;;;;6.61;79.97;101008.09;5007810;28;20045;-81
2023/12/10 06:10:19;;;;;;;147.98;57.42;;;;;;;6.05;79.20;100888.75;4992667;28;20046;-82
2023/12/10 06:12:46;;;;;;;128.32;52.40;;;;;;;6.56;78.46;100967.16;4988269;28;20058;-83
2023/12/10 06:15:18;;;;;;;129.95;55.78;;;;;;;6.32;79.22;100937.97;4995900;28;20491;-82
2023/12/10 06:17:44;;;;;;;134.50;55.05;;;;;;;6.55;79.22;100984.78;5008437;28;20663;-81
2023/12/10 06:20:14;;;;;;;130.27;54.10;;;;;;;6.34;79.34;100986.19;4970865;28;20103;-82
2023/12/10 06:22:41;;;;;;;140.73;57.10;;;;;;;6.40;80.21;101027.97;4988899;28;20491;-81
2023/12/10 06:25:08;;;;;;;127.78;54.92;;;;;;;6.19;80.76;101004.69;4988063;28;20046;-80
2023/12/10 06:27:35;;;;;;;141.18;53.65;;;;;;;6.27;80.84;101027.91;4987472;28;20050;-82
2023/12/10 06:30:01;;;;;;;136.60;56.03;;;;;;;6.26;81.65;101017.47;4976634;28;20452;-81
2023/12/10 06:32:28;;;;;;;132.10;53.97;;;;;;;5.91;81.38;100957.28;4978541;28;20132;-81
2023/12/10 06:34:56;;;;;;;123.10;51.92;;;;;;;5.97;81.47;100968.31;4987108;28;20419;-80
2023/12/10 06:37:26;;;;;;;127.38;52.83;;;;;;;6.11;81.47;101001.69;4986939;28;20041;-81
2023/12/10 06:39:54;;;;;;;125.45;51.95;;;;;;;6.04;81.43;101005.63;4980651;28;20057;-81
2023/12/10 06:42:23;;;;;;;133.65;53.63;;;;;;;6.28;81.41;101044.56;4970829;28;20156;-82
2023/12/10 06:44:49;;;;;;;131.10;52.83;;;;;;;6.21;81.16;101052.03;4960088;28;20305;-83
2023/12/10 06:47:23;;;;;;;128.27;52.10;;;;;;;6.20;81.45;101032.72;4959482;28;20107;-81
2023/12/10 06:49:51;;;;;;;127.57;51.97;;;;;;;6.16;81.04;101001.38;4984187;28;20049;-80
2023/12/10 06:52:18;;;;;;;139.98;54.17;;;;;;;6.25;81.26;101028.97;4983806;28;20129;-81
2023/12/10 06:54:45;;;;;;;133.60;55.58;;;;;;;6.23;80.97;101051.94;4987380;28;20050;-83
2023/12/10 06:57:11;;;;;;;134.32;51.55;;;;;;;6.08;81.41;101036.16;4977373;28;20224;-82
2023/12/10 06:59:39;;;;;;;132.35;51.47;;;;;;;6.10;81.00;101030.78;4983594;28;20050;-82
2023/12/10 07:02:06;;;;;;;140.30;52.05;;;;;;;6.01;81.46;101045.38;4978737;28;20511;-79
2023/12/10 07:04:33;;;;;;;130.23;52.60;;;;;;;6.06;82.18;101055.63;4983779;28;20061;-81
2023/12/10 07:06:59;;;;;;;125.32;49.95;;;;;;;5.82;82.35;101024.56;4979980;28;20038;-81
2023/12/10 07:09:26;;;;;;;127.20;50.55;;;;;;;6.13;82.24;101068.31;4978378;28;20046;-82
2023/12/10 07:11:53;;;;;;;134.85;52.47;;;;;;;6.05;82.20;101059.22;4992270;28;20053;-82
2023/12/10 07:14:20;;;;;;;129.73;50.47;;;;;;;5.78;82.27;101010.75;4986699;28;20339;-81
2023/12/10 07:16:47;;;;;;;123.03;50.10;;;;;;;6.09;82.05;101061.56;4985715;28;20463;-81
2023/12/10 07:19:13;;;;;;;124.88;49.72;;;;;;;6.11;82.05;101064.94;4984529;28;20447;-81
2023/12/10 07:21:40;;;;;;;118.43;48.53;;;;;;;6.23;82.15;101079.16;4980603;28;20045;-82
2023/12/10 07:24:10;;;;;;;127.78;51.28;;;;;;;6.25;80.71;101055.31;4977849;28;20073;-80
2023/12/10 07:26:37;;;;;;;116.40;46.38;;;;;;;6.35;80.89;101082.78;5002653;28;20046;-80
2023/12/10 07:29:04;;;;;;;126.07;48.78;;;;;;;6.20;80.86;101069.63;4985773;28;20555;-80
2023/12/10 07:31:32;;;;;;;111.05;49.05;;;;;;;6.23;81.61;101089.69;4978268;28;20070;-81
2023/12/10 07:33:59;;;;;;;109.80;46.88;;;;;;;5.78;81.23;101031.81;4985603;28;20137;-82
2023/12/10 07:36:26;;;;;;;98.93;39.00;;;;;;;5.76;80.65;100990.72;5003979;28;20493;-80
2023/12/10 07:38:53;;;;;;;100.28;42.10;;;;;;;6.26;79.89;101081.56;4996117;28;20135;-81
2023/12/10 07:41:22;;;;;;;94.75;42.85;;;;;;;6.49;79.24;101122.34;4984346;28;20053;-80
2023/12/10 07:43:54;;;;;;;93.25;38.95;;;;;;;6.44;80.11;101124.41;4985698;28;20058;-82
2023/12/10 07:46:21;;;;;;;96.05;40.60;;;;;;;6.42;79.91;101126.31;4975606;28;20046;-82
2023/12/10 07:48:48;;;;;;;93.50;39.63;;;;;;;6.47;79.91;101129.50;4984072;28;20129;-81
2023/12/10 07:51:16;;;;;;;90.47;38.42;;;;;;;6.13;79.86;101068.31;4978889;28;20061;-82
2023/12/10 07:53:43;;;;;;;85.72;39.88;;;;;;;6.33;79.59;101100.50;4987605;28;20050;-80
2023/12/10 07:56:10;;;;;;;90.13;40.35;;;;;;;5.87;79.90;101048.00;4984438;28;20060;-81
2023/12/10 07:58:37;;;;;;;80.78;38.13;;;;;;;6.27;79.64;101098.28;4980326;28;20050;-82
2023/12/10 08:01:04;;;;;;;83.82;36.78;;;;;;;6.27;78.40;101070.09;4967216;28;20050;-81
2023/12/10 08:03:31;;;;;;;82.10;38.00;;;;;;;6.32;78.95;101117.28;4985858;28;20168;-81
2023/12/10 08:06:00;;;;;;;76.93;36.50;;;;;;;6.38;79.06;101120.38;4984084;28;20502;-81
2023/12/10 08:08:31;;;;;;;77.82;35.92;;;;;;;6.32;78.81;101096.19;4963100;28;20054;-79
2023/12/10 08:11:03;;;;;;;74.22;36.78;;;;;;;6.37;79.22;101120.47;4941953;28;20054;-81
2023/12/10 08:13:30;;;;;;;75.43;35.15;;;;;;;6.56;78.58;101144.75;4945679;28;20439;-81
2023/12/10 08:15:57;;;;;;;81.82;36.70;;;;;;;6.51;78.43;101140.72;4974095;28;20121;-80
2023/12/10 08:18:26;;;;;;;77.95;36.33;;;;;;;6.46;78.30;101129.56;4984083;28;20053;-83
2023/12/10 08:20:54;;;;;;;79.63;35.83;;;;;;;6.36;79.43;101117.00;4984338;28;20814;-81
2023/12/10 08:23:21;;;;;;;79.05;39.60;;;;;;;6.43;79.39;101143.81;4987283;28;20103;-81
2023/12/10 08:25:47;;;;;;;90.32;41.28;;;;;;;5.95;78.52;101061.59;4986197;28;20056;-83
2023/12/10 08:28:14;;;;;;;82.75;37.20;;;;;;;6.27;78.72;101129.91;5000998;28;20084;-82
2023/12/10 08:30:41;;;;;;;79.10;37.47;;;;;;;6.47;79.28;101176.13;4981348;28;20049;-82
2023/12/10 08:33:08;;;;;;;77.57;34.90;;;;;;;5.93;78.71;101073.97;4971418;28;20459;-82
2023/12/10 08:35:49;;;;;;;76.43;36.60;;;;;;;6.54;78.93;101164.25;4980431;28;20496;-83
2023/12/10 08:38:16;;;;;;;85.43;38.20;;;;;;;6.48;78.83;101178.69;4988876;28;20069;-81
2023/12/10 08:40:43;;;;;;;78.22;34.28;;;;;;;6.00;79.33;101106.94;4988521;28;20800;-82
2023/12/10 08:43:10;;;;;;;70.45;31.85;;;;;;;6.05;79.43;101110.16;4988285;28;20068;-82
2023/12/10 08:45:37;;;;;;;69.22;33.78;;;;;;;6.55;78.74;101205.50;4987795;28;20535;-81
2023/12/10 08:48:05;;;;;;;67.00;31.42;;;;;;;6.59;78.01;101202.56;4987726;28;20042;-81
2023/12/10 08:50:32;;;;;;;66.55;30.67;;;;;;;6.52;78.70;101201.25;4987893;28;20569;-81
2023/12/10 08:52:58;;;;;;;62.70;30.50;;;;;;;6.47;78.39;101213.06;4977608;28;20050;-81
2023/12/10 08:55:25;;;;;;;59.85;28.60;;;;;;;6.61;78.22;101205.97;4991468;28;20050;-81
2023/12/10 08:57:53;;;;;;;60.80;28.10;;;;;;;6.58;77.45;101195.63;4988086;28;20141;-82
2023/12/10 09:00:20;;;;;;;62.50;31.10;;;;;;;6.64;77.16;101202.28;4957461;28;20046;-81
2023/12/10 09:02:47;;;;;;;57.95;29.08;;;;;;;6.70;76.62;101208.97;4977026;28;20476;-80
2023/12/10 09:05:14;;;;;;;61.60;27.92;;;;;;;6.45;76.93;101181.50;4980805;28;20056;-80
2023/12/10 09:07:41;;;;;;;57.33;28.13;;;;;;;6.69;77.22;101217.84;4990134;28;20100;-80
2023/12/10 09:10:08;;;;;;;51.50;26.10;;;;;;;6.60;76.59;101193.75;4984259;28;20038;-82
2023/12/10 09:12:39;;;;;;;59.28;27.92;;;;;;;6.66;76.68;101187.22;4983485;28;20057;-81
2023/12/10 09:15:07;;;;;;;64.35;30.33;;;;;;;6.68;77.29;101216.16;4986859;28;20044;-81
2023/12/10 09:17:34;;;;;;;58.85;28.88;;;;;;;6.74;77.22;101219.22;4979399;28;20228;-81
2023/12/10 09:20:01;;;;;;;66.28;30.25;;;;;;;6.70;76.95;101209.84;4987550;28;20129;-81
2023/12/10 09:22:28;;;;;;;73.47;32.60;;;;;;;6.82;77.12;101248.66;4981590;28;20423;-81
2023/12/10 09:24:55;;;;;;;70.03;33.40;;;;;;;6.93;77.11;101247.97;4987270;28;20085;-82
2023/12/10 09:27:22;;;;;;;62.55;30.73;;;;;;;7.03;77.03;101256.97;4981714;28;20100;-82
2023/12/10 09:29:51;;;;;;;65.82;33.13;;;;;;;7.05;76.32;101257.75;4982313;28;20052;-83
2023/12/10 09:32:20;;;;;;;70.38;31.55;;;;;;;7.06;76.41;101243.59;4969579;28;20096;-83
2023/12/10 09:34:47;;;;;;;68.60;32.30;;;;;;;6.96;76.46;101234.56;4964572;28;20185;-84
2023/12/10 09:37:14;;;;;;;69.93;31.98;;;;;;;6.86;77.28;101209.69;4969312;28;20062;-82
2023/12/10 09:39:41;;;;;;;58.88;30.35;;;;;;;6.68;77.07;101189.78;4968714;28;20042;-83
2023/12/10 09:42:08;;;;;;;64.47;30.20;;;;;;;6.99;77.25;101226.47;4986414;28;20046;-82
2023/12/10 09:44:36;;;;;;;52.70;26.77;;;;;;;6.87;76.02;101190.28;4981048;28;20064;-82
2023/12/10 09:47:08;;;;;;;58.10;28.48;;;;;;;7.13;75.00;101253.75;4986755;28;20052;-83
2023/12/10 09:49:42;;;;;;;56.20;25.52;;;;;;;7.05;75.50;101249.81;4971136;28;20132;-84
2023/12/10 09:52:10;;;;;;;54.20;27.23;;;;;;;6.94;74.77;101225.91;4974925;28;20358;-82
2023/12/10 09:54:41;;;;;;;52.95;25.83;;;;;;;6.90;75.39;101211.22;4996703;28;20240;-82
2023/12/10 09:57:11;;;;;;;52.15;27.77;;;;;;;6.62;75.21;101173.34;4986820;28;20500;-84
2023/12/10 09:59:39;;;;;;;53.30;28.77;;;;;;;6.97;75.52;101228.34;4983769;28;20073;-84
2023/12/10 10:02:10;;;;;;;62.83;26.80;;;;;;;7.09;75.49;101221.44;4987586;28;20056;-82
2023/12/10 10:04:39;;;;;;;61.92;27.50;;;;;;;6.84;75.52;101179.91;4986881;28;20493;-82
2023/12/10 10:07:07;;;;;;;54.47;26.45;;;;;;;6.75;75.08;101160.25;4980708;28;20054;-82
2023/12/10 10:09:34;;;;;;;53.25;27.17;;;;;;;7.05;75.16;101197.00;4987185;28;20085;-83
2023/12/10 10:12:04;;;;;;;56.58;28.67;;;;;;;7.08;75.12;101195.97;4979716;28;20369;-82
2023/12/10 10:14:32;;;;;;;60.08;28.88;;;;;;;7.23;74.38;101196.75;4982546;28;20045;-83
2023/12/10 10:17:02;;;;;;;60.80;30.48;;;;;;;7.28;75.01;101227.22;4985931;28;20141;-82
2023/12/10 10:19:29;;;;;;;50.13;27.25;;;;;;;7.19;74.53;101211.13;4988075;28;20476;-83
2023/12/10 10:21:56;;;;;;;57.30;28.23;;;;;;;7.21;74.67;101219.81;4986923;28;20088;-82
2023/12/10 10:24:22;;;;;;;59.25;28.38;;;;;;;7.34;74.58;101218.03;4980915;28;20046;-83
2023/12/10 10:26:52;;;;;;;52.13;26.95;;;;;;;7.22;75.32;101210.91;4979880;28;20046;-82
2023/12/10 10:29:22;;;;;;;56.55;28.20;;;;;;;7.28;74.69;101231.63;4981074;28;20359;-84
2023/12/10 10:31:50;;;;;;;59.60;28.98;;;;;;;7.43;74.41;101225.38;4988935;28;20049;-83
2023/12/10 10:34:17;;;;;;;50.45;27.23;;;;;;;7.40;73.64;101225.59;4987572;28;20057;-81
2023/12/10 10:36:45;;;;;;;53.40;28.27;;;;;;;7.27;74.28;101235.25;4991713;28;20750;-82
2023/12/10 10:39:11;;;;;;;54.83;29.15;;;;;;;6.98;74.29;101165.84;4984010;28;20061;-80
2023/12/10 10:41:39;;;;;;;60.55;30.50;;;;;;;7.37;74.23;101231.03;4979192;28;20054;-80
2023/12/10 10:44:06;;;;;;;60.33;30.52;;;;;;;7.24;74.14;101198.47;4984994;28;20795;-82
2023/12/10 10:46:34;;;;;;;66.20;30.13;;;;;;;7.44;74.09;101219.13;4986791;28;20050;-81
2023/12/10 10:49:03;;;;;;;57.55;29.90;;;;;;;7.42;74.07;101199.88;4978613;28;20536;-81
2023/12/10 10:51:32;;;;;;;62.85;30.63;;;;;;;7.45;74.27;101234.03;4985092;28;20049;-81
2023/12/10 10:54:03;;;;;;;60.80;30.40;;;;;;;7.55;74.09;101244.84;4990113;28;20125;-82
2023/12/10 10:56:31;;;;;;;56.92;29.35;;;;;;;7.35;73.89;101227.66;4990376;28;20050;-81
2023/12/10 10:58:59;;;;;;;58.67;30.77;;;;;;;6.81;74.55;101159.84;4987134;28;20429;-82
2023/12/10 11:01:37;;;;;;;56.60;30.70;;;;;;;7.25;74.28;101192.22;4989114;28;20271;-82
2023/12/10 11:04:06;;;;;;;57.80;28.90;;;;;;;7.10;74.62;101148.34;4989465;28;20054;-82
2023/12/10 11:06:35;;;;;;;61.20;30.90;;;;;;;7.58;74.56;101233.22;4985467;28;20050;-81
2023/12/10 11:09:02;;;;;;;57.65;31.50;;;;;;;7.56;73.38;101221.91;4992160;28;20057;-81
2023/12/10 11:11:38;;;;;;;56.35;29.65;;;;;;;7.65;73.25;101223.94;4977511;28;20054;-81
2023/12/10 11:14:19;;;;;;;62.40;30.73;;;;;;;7.35;73.14;101164.25;4980685;28;20057;-82
2023/12/10 11:16:58;;;;;;;66.20;33.60;;;;;;;7.62;73.46;101198.59;4991335;28;20108;-80
2023/12/10 11:19:25;;;;;;;64.28;30.88;;;;;;;7.60;74.10;101202.28;4990714;28;20069;-81